Lawin Arrow — C6BD8 — position and weather

sailwx.info

Track history (hours):
 
Tides and Currents Weather Stations Pressure Air Temp Water Temp Dewpoint Dewpoint Depression Visibility Wind Speed Wind Dir Waves Ship Positions

Lawin Arrow

Last reported at 2017-Nov-08 18:54 UTC. Time now 2017-Nov-21 12:18 UTC.
Position N 48°11' W 125°53'.
Warning: this ship's position is 12 days out of date.

Length 200 m; draft 10.7 m.

Type: Cargo ship. MMSI: 311000235.

Date/timePositionNaut miles runAvg speedWind from/ knotsBaromVisibWave heightAir tempDewpointWater temp
2017-Nov-08 18:54N 48°11' W 125°53'4 9.3
2017-Nov-08 18:28N 48°13' W 125°47'4 9.4
2017-Nov-08 18:01N 48°14' W 125°41'5 9.2
2017-Nov-08 17:29N 48°16' W 125°34'5 8.8
2017-Nov-08 16:53N 48°18' W 125°27'3 8.8
2017-Nov-08 16:30N 48°19' W 125°22'6 9.3
2017-Nov-08 15:55N 48°22' W 125°14'4 9.7
2017-Nov-08 15:28N 48°23' W 125°08'5 9.6
2017-Nov-08 14:59N 48°25' W 125°02'510.1
2017-Nov-08 14:30N 48°27' W 124°55'510.3
2017-Nov-08 14:01N 48°29' W 124°48'5 9.4
2017-Nov-08 13:31N 48°30' W 124°41'611.5
2017-Nov-08 13:01N 48°28' W 124°33'611.8
2017-Nov-08 12:31N 48°26' W 124°25'611.8
2017-Nov-08 12:01N 48°23' W 124°17'611.8
2017-Nov-08 11:30N 48°21' W 124°09'611.9
2017-Nov-08 10:59N 48°19' W 124°00'612.5
2017-Nov-08 10:30N 48°17' W 123°51'713.8
2017-Nov-08 10:00N 48°16' W 123°41'713.9
2017-Nov-08 09:30N 48°16' W 123°31'612.7
2017-Nov-08 09:00N 48°21' W 123°25'4 8.7
2017-Nov-08 08:30N 48°23' W 123°20'510.9
2017-Nov-08 08:00N 48°26' W 123°12'917.1
2017-Nov-08 07:30N 48°34' W 123°13'916.3
2017-Nov-08 06:58N 48°43' W 123°17'714.7
2017-Nov-08 06:30N 48°49' W 123°21'713.8
2017-Nov-08 06:00N 48°54' W 123°28'611.6
2017-Nov-08 05:29N 48°57' W 123°36'4 8.8
2017-Nov-08 05:00N 48°53' W 123°37'  
2017-Nov-05 13:21N 48°54' W 123°37'3 7.4
2017-Nov-05 12:58N 48°57' W 123°37'3 7.0
2017-Nov-05 12:30N 48°55' W 123°32'5 9.7
2017-Nov-05 12:00N 48°53' W 123°26'510.7
2017-Nov-05 11:30N 48°49' W 123°20'612.1
2017-Nov-05 11:00N 48°44' W 123°15'510.7
2017-Nov-05 10:30N 48°45' W 123°07'610.7
2017-Nov-05 09:59N 48°48' W 123°01'612.9
2017-Nov-05 09:30N 48°53' W 123°07'713.3
2017-Nov-05 09:00N 48°57' W 123°15'713.7
2017-Nov-05 08:30N 49°02' W 123°22'713.5
2017-Nov-05 08:00N 49°06' W 123°30'713.9
2017-Nov-05 07:30N 49°11' W 123°38'  
2017-Nov-02 21:03N 49°08' W 123°51'0 0.0
2017-Nov-02 21:00N 49°08' W 123°51'0 0.0
2017-Nov-02 20:27N 49°08' W 123°51'0 0.0
2017-Nov-02 20:00N 49°08' W 123°51'0 0.0
2017-Nov-02 19:27N 49°08' W 123°51'0 0.0
2017-Nov-02 19:00N 49°08' W 123°51'0 0.0
2017-Nov-02 18:30N 49°08' W 123°51'0 0.0
2017-Nov-02 18:00N 49°08' W 123°51'0 0.0
2017-Nov-02 17:30N 49°08' W 123°51'0 0.0
2017-Nov-02 17:00N 49°08' W 123°51'0 0.0
2017-Nov-02 16:30N 49°08' W 123°51'0 0.0
2017-Nov-02 16:00N 49°08' W 123°51'0 0.0
2017-Nov-02 15:30N 49°08' W 123°51'0 0.0
2017-Nov-02 14:57N 49°08' W 123°51'0 0.0
2017-Nov-02 14:30N 49°08' W 123°51'0 0.0
2017-Nov-02 13:54N 49°08' W 123°51'0 0.0
2017-Nov-02 13:30N 49°08' W 123°51'0 0.0
2017-Nov-02 13:00N 49°08' W 123°51'0 0.0
2017-Nov-02 12:24N 49°08' W 123°51'0 0.0
2017-Nov-02 12:00N 49°08' W 123°51'0 0.0
2017-Nov-02 11:30N 49°08' W 123°51'0 0.0
2017-Nov-02 10:59N 49°08' W 123°51'0 0.0
2017-Nov-02 10:29N 49°08' W 123°51'0 0.0
2017-Nov-02 10:00N 49°08' W 123°51'0 0.0
2017-Nov-02 09:30N 49°08' W 123°51'0 0.0
2017-Nov-02 08:54N 49°08' W 123°51'0 0.0
2017-Nov-02 08:30N 49°08' W 123°51'0 0.0
2017-Nov-02 08:00N 49°08' W 123°51'0 0.0
2017-Nov-02 07:30N 49°08' W 123°51'0 0.0
2017-Nov-02 07:00N 49°08' W 123°51'0 0.0
2017-Nov-02 06:30N 49°08' W 123°51'0 0.0
2017-Nov-02 06:00N 49°08' W 123°51'0 0.0
2017-Nov-02 05:30N 49°08' W 123°51'0 0.0
2017-Nov-02 05:00N 49°08' W 123°51'0 0.0
2017-Nov-02 04:30N 49°08' W 123°51'0 0.0
2017-Nov-02 04:00N 49°08' W 123°51'0 0.0
2017-Nov-02 03:29N 49°08' W 123°51'0 0.0
2017-Nov-02 02:33N 49°08' W 123°51'0 0.1
2017-Nov-02 02:30N 49°08' W 123°51'0 0.0
2017-Nov-02 02:00N 49°08' W 123°51'0 0.0
2017-Nov-02 01:29N 49°08' W 123°51'0 0.0
2017-Nov-02 01:00N 49°08' W 123°51'0 0.0
2017-Nov-02 00:30N 49°08' W 123°51'0 0.0
2017-Nov-01 23:59N 49°08' W 123°51'0 0.0
2017-Nov-01 23:30N 49°08' W 123°51'0 0.0
2017-Nov-01 22:54N 49°08' W 123°51'0 0.0
2017-Nov-01 22:29N 49°08' W 123°51'0 0.0
2017-Nov-01 21:53N 49°08' W 123°51'0 0.0
2017-Nov-01 21:29N 49°08' W 123°51'0 0.0
2017-Nov-01 20:59N 49°08' W 123°51'0 0.0
2017-Nov-01 20:23N 49°08' W 123°51'0 0.0
2017-Nov-01 19:53N 49°08' W 123°51'0 0.0
2017-Nov-01 19:23N 49°08' W 123°51'0 0.0
2017-Nov-01 19:00N 49°08' W 123°51'0 0.0
2017-Nov-01 18:29N 49°08' W 123°51'18 1.0
2017-Nov-01 00:10N 48°52' W 123°38'0 0.0
2017-Oct-31 23:59N 48°52' W 123°38'0 0.0
2017-Oct-31 23:22N 48°52' W 123°38'0 0.0
2017-Oct-31 22:02N 48°52' W 123°38'0 0.0
2017-Oct-31 21:53N 48°52' W 123°38'0 0.0
2017-Oct-31 21:28N 48°52' W 123°38'0 0.0
2017-Oct-31 20:58N 48°52' W 123°38'0 0.0
2017-Oct-31 20:28N 48°52' W 123°38'0 0.0
2017-Oct-31 19:52N 48°52' W 123°38'0 0.0
2017-Oct-31 19:28N 48°52' W 123°38'0 0.0
2017-Oct-31 18:58N 48°52' W 123°38'0 0.0
2017-Oct-31 18:28N 48°52' W 123°38'0 0.0
2017-Oct-31 16:13N 48°52' W 123°38'0 0.0
2017-Oct-31 15:52N 48°52' W 123°38'0 0.0
2017-Oct-31 15:28N 48°52' W 123°38'0 0.0
2017-Oct-31 14:58N 48°52' W 123°38'0 0.0
2017-Oct-31 14:28N 48°52' W 123°38'0 0.0
2017-Oct-31 13:58N 48°52' W 123°38'0 0.0
2017-Oct-31 13:28N 48°52' W 123°38'0 0.0
2017-Oct-31 12:58N 48°52' W 123°38'0 0.0
2017-Oct-31 12:28N 48°52' W 123°38'0 0.0
2017-Oct-31 11:25N 48°52' W 123°38'0 0.0
2017-Oct-31 10:58N 48°52' W 123°38'0 0.0
2017-Oct-31 07:49N 48°52' W 123°38'0 0.0
2017-Oct-31 07:19N 48°52' W 123°38'0 0.0
2017-Oct-31 06:40N 48°52' W 123°38'0 0.0
2017-Oct-31 06:13N 48°52' W 123°38'0 0.0
2017-Oct-31 05:49N 48°52' W 123°38'0 0.0
2017-Oct-31 05:07N 48°52' W 123°38'0 0.0
2017-Oct-31 04:43N 48°52' W 123°38'0 0.0
2017-Oct-31 04:16N 48°52' W 123°38'0 0.0
2017-Oct-31 03:55N 48°52' W 123°38'0 0.0
2017-Oct-31 03:25N 48°52' W 123°38'0 0.0
2017-Oct-31 02:58N 48°52' W 123°38'0 0.0
2017-Oct-31 02:28N 48°52' W 123°38'0 0.0
2017-Oct-31 01:58N 48°52' W 123°38'0 0.0
2017-Oct-31 01:28N 48°52' W 123°38'0 0.0
2017-Oct-31 00:19N 48°52' W 123°38'0 0.0
2017-Oct-30 21:22N 48°52' W 123°38'0 0.0
2017-Oct-30 20:31N 48°52' W 123°38'0 0.0
2017-Oct-30 20:28N 48°52' W 123°38'0 0.0
2017-Oct-30 19:58N 48°52' W 123°38'0 0.0
2017-Oct-30 19:28N 48°52' W 123°38'0 0.0
2017-Oct-30 18:52N 48°52' W 123°38'0 0.0
2017-Oct-30 18:28N 48°52' W 123°38'0 0.0
2017-Oct-30 17:58N 48°52' W 123°38'0 0.0
2017-Oct-30 17:13N 48°52' W 123°38'0 0.0
2017-Oct-30 16:55N 48°52' W 123°38'0 0.0
2017-Oct-30 16:25N 48°52' W 123°38'0 0.0
2017-Oct-30 15:58N 48°52' W 123°38'0 0.0
2017-Oct-30 15:25N 48°52' W 123°38'0 0.0
2017-Oct-30 14:58N 48°52' W 123°38'0 0.0
2017-Oct-30 14:28N 48°52' W 123°38'0 0.0
2017-Oct-30 13:25N 48°52' W 123°38'0 0.0
2017-Oct-30 12:58N 48°52' W 123°38'0 0.0
2017-Oct-30 12:28N 48°52' W 123°38'0 0.0
2017-Oct-30 11:58N 48°52' W 123°38'0 0.0
2017-Oct-30 11:22N 48°52' W 123°38'0 0.0
2017-Oct-30 10:58N 48°52' W 123°38'0 0.0
2017-Oct-30 10:28N 48°52' W 123°38'0 0.0
2017-Oct-30 09:58N 48°52' W 123°38'0 0.0
2017-Oct-30 09:25N 48°52' W 123°38'0 0.0
2017-Oct-30 08:58N 48°52' W 123°38'0 0.0
2017-Oct-30 08:28N 48°52' W 123°38'0 0.0
2017-Oct-30 07:52N 48°52' W 123°38'0 0.0
2017-Oct-30 07:28N 48°52' W 123°38'0 0.0
2017-Oct-30 06:58N 48°52' W 123°38'0 0.0
2017-Oct-30 06:28N 48°52' W 123°38'0 0.0
2017-Oct-30 05:52N 48°52' W 123°38'0 0.0
2017-Oct-30 05:28N 48°52' W 123°38'0 0.0
2017-Oct-30 04:58N 48°52' W 123°38'0 0.0
2017-Oct-30 04:28N 48°52' W 123°38'0 0.0
2017-Oct-30 03:58N 48°52' W 123°38'0 0.0
2017-Oct-30 03:28N 48°52' W 123°38'0 0.0
2017-Oct-30 02:58N 48°52' W 123°38'0 0.0
2017-Oct-30 02:28N 48°52' W 123°38'0 0.0
2017-Oct-30 01:58N 48°52' W 123°38'0 0.0
2017-Oct-30 01:28N 48°52' W 123°38'0 0.0
2017-Oct-30 00:58N 48°52' W 123°38'0 0.0
2017-Oct-30 00:28N 48°52' W 123°38'0 0.0
2017-Oct-29 23:58N 48°52' W 123°38'0 0.0
2017-Oct-29 23:25N 48°52' W 123°38'0 0.0
2017-Oct-29 22:58N 48°52' W 123°38'0 0.0
2017-Oct-29 22:28N 48°52' W 123°38'0 0.0
2017-Oct-29 21:58N 48°52' W 123°38'0 0.0
2017-Oct-29 21:28N 48°52' W 123°38'0 0.0
2017-Oct-29 20:52N 48°52' W 123°38'0 0.0
2017-Oct-29 20:28N 48°52' W 123°38'  
Track history (hours):
 
Tides and Currents Weather Stations Pressure Air Temp Water Temp Dewpoint Dewpoint Depression Visibility Wind Speed Wind Dir Waves Ship Positions

Lawin Arrow

Last reported at 2017-Nov-08 18:54 UTC. Time now 2017-Nov-21 12:18 UTC.
Position N 48°11' W 125°53'.
Warning: this ship's position is 12 days out of date.

Length 200 m; draft 10.7 m.

Type: Cargo ship. MMSI: 311000235.

Date/timePositionNaut miles runAvg speedWind from/ knotsBaromVisibWave heightAir tempDewpointWater temp
2017-Nov-08 18:54N 48°11' W 125°53'4 9.3
2017-Nov-08 18:28N 48°13' W 125°47'4 9.4
2017-Nov-08 18:01N 48°14' W 125°41'5 9.2
2017-Nov-08 17:29N 48°16' W 125°34'5 8.8
2017-Nov-08 16:53N 48°18' W 125°27'3 8.8
2017-Nov-08 16:30N 48°19' W 125°22'6 9.3
2017-Nov-08 15:55N 48°22' W 125°14'4 9.7
2017-Nov-08 15:28N 48°23' W 125°08'5 9.6
2017-Nov-08 14:59N 48°25' W 125°02'510.1
2017-Nov-08 14:30N 48°27' W 124°55'510.3
2017-Nov-08 14:01N 48°29' W 124°48'5 9.4
2017-Nov-08 13:31N 48°30' W 124°41'611.5
2017-Nov-08 13:01N 48°28' W 124°33'611.8
2017-Nov-08 12:31N 48°26' W 124°25'611.8
2017-Nov-08 12:01N 48°23' W 124°17'611.8
2017-Nov-08 11:30N 48°21' W 124°09'611.9
2017-Nov-08 10:59N 48°19' W 124°00'612.5
2017-Nov-08 10:30N 48°17' W 123°51'713.8
2017-Nov-08 10:00N 48°16' W 123°41'713.9
2017-Nov-08 09:30N 48°16' W 123°31'612.7
2017-Nov-08 09:00N 48°21' W 123°25'4 8.7
2017-Nov-08 08:30N 48°23' W 123°20'510.9
2017-Nov-08 08:00N 48°26' W 123°12'917.1
2017-Nov-08 07:30N 48°34' W 123°13'916.3
2017-Nov-08 06:58N 48°43' W 123°17'714.7
2017-Nov-08 06:30N 48°49' W 123°21'713.8
2017-Nov-08 06:00N 48°54' W 123°28'611.6
2017-Nov-08 05:29N 48°57' W 123°36'4 8.8
2017-Nov-08 05:00N 48°53' W 123°37'  
2017-Nov-05 13:21N 48°54' W 123°37'3 7.4
2017-Nov-05 12:58N 48°57' W 123°37'3 7.0
2017-Nov-05 12:30N 48°55' W 123°32'5 9.7
2017-Nov-05 12:00N 48°53' W 123°26'510.7
2017-Nov-05 11:30N 48°49' W 123°20'612.1
2017-Nov-05 11:00N 48°44' W 123°15'510.7
2017-Nov-05 10:30N 48°45' W 123°07'610.7
2017-Nov-05 09:59N 48°48' W 123°01'612.9
2017-Nov-05 09:30N 48°53' W 123°07'713.3
2017-Nov-05 09:00N 48°57' W 123°15'713.7
2017-Nov-05 08:30N 49°02' W 123°22'713.5
2017-Nov-05 08:00N 49°06' W 123°30'713.9
2017-Nov-05 07:30N 49°11' W 123°38'  
2017-Nov-02 21:03N 49°08' W 123°51'0 0.0
2017-Nov-02 21:00N 49°08' W 123°51'0 0.0
2017-Nov-02 20:27N 49°08' W 123°51'0 0.0
2017-Nov-02 20:00N 49°08' W 123°51'0 0.0
2017-Nov-02 19:27N 49°08' W 123°51'0 0.0
2017-Nov-02 19:00N 49°08' W 123°51'0 0.0
2017-Nov-02 18:30N 49°08' W 123°51'0 0.0
2017-Nov-02 18:00N 49°08' W 123°51'0 0.0
2017-Nov-02 17:30N 49°08' W 123°51'0 0.0
2017-Nov-02 17:00N 49°08' W 123°51'0 0.0
2017-Nov-02 16:30N 49°08' W 123°51'0 0.0
2017-Nov-02 16:00N 49°08' W 123°51'0 0.0
2017-Nov-02 15:30N 49°08' W 123°51'0 0.0
2017-Nov-02 14:57N 49°08' W 123°51'0 0.0
2017-Nov-02 14:30N 49°08' W 123°51'0 0.0
2017-Nov-02 13:54N 49°08' W 123°51'0 0.0
2017-Nov-02 13:30N 49°08' W 123°51'0 0.0
2017-Nov-02 13:00N 49°08' W 123°51'0 0.0
2017-Nov-02 12:24N 49°08' W 123°51'0 0.0
2017-Nov-02 12:00N 49°08' W 123°51'0 0.0
2017-Nov-02 11:30N 49°08' W 123°51'0 0.0
2017-Nov-02 10:59N 49°08' W 123°51'0 0.0
2017-Nov-02 10:29N 49°08' W 123°51'0 0.0
2017-Nov-02 10:00N 49°08' W 123°51'0 0.0
2017-Nov-02 09:30N 49°08' W 123°51'0 0.0
2017-Nov-02 08:54N 49°08' W 123°51'0 0.0
2017-Nov-02 08:30N 49°08' W 123°51'0 0.0
2017-Nov-02 08:00N 49°08' W 123°51'0 0.0
2017-Nov-02 07:30N 49°08' W 123°51'0 0.0
2017-Nov-02 07:00N 49°08' W 123°51'0 0.0
2017-Nov-02 06:30N 49°08' W 123°51'0 0.0
2017-Nov-02 06:00N 49°08' W 123°51'0 0.0
2017-Nov-02 05:30N 49°08' W 123°51'0 0.0
2017-Nov-02 05:00N 49°08' W 123°51'0 0.0
2017-Nov-02 04:30N 49°08' W 123°51'0 0.0
2017-Nov-02 04:00N 49°08' W 123°51'0 0.0
2017-Nov-02 03:29N 49°08' W 123°51'0 0.0
2017-Nov-02 02:33N 49°08' W 123°51'0 0.1
2017-Nov-02 02:30N 49°08' W 123°51'0 0.0
2017-Nov-02 02:00N 49°08' W 123°51'0 0.0
2017-Nov-02 01:29N 49°08' W 123°51'0 0.0
2017-Nov-02 01:00N 49°08' W 123°51'0 0.0
2017-Nov-02 00:30N 49°08' W 123°51'0 0.0
2017-Nov-01 23:59N 49°08' W 123°51'0 0.0
2017-Nov-01 23:30N 49°08' W 123°51'0 0.0
2017-Nov-01 22:54N 49°08' W 123°51'0 0.0
2017-Nov-01 22:29N 49°08' W 123°51'0 0.0
2017-Nov-01 21:53N 49°08' W 123°51'0 0.0
2017-Nov-01 21:29N 49°08' W 123°51'0 0.0
2017-Nov-01 20:59N 49°08' W 123°51'0 0.0
2017-Nov-01 20:23N 49°08' W 123°51'0 0.0
2017-Nov-01 19:53N 49°08' W 123°51'0 0.0
2017-Nov-01 19:23N 49°08' W 123°51'0 0.0
2017-Nov-01 19:00N 49°08' W 123°51'0 0.0
2017-Nov-01 18:29N 49°08' W 123°51'18 1.0
2017-Nov-01 00:10N 48°52' W 123°38'0 0.0
2017-Oct-31 23:59N 48°52' W 123°38'0 0.0
2017-Oct-31 23:22N 48°52' W 123°38'0 0.0
2017-Oct-31 22:02N 48°52' W 123°38'0 0.0
2017-Oct-31 21:53N 48°52' W 123°38'0 0.0
2017-Oct-31 21:28N 48°52' W 123°38'0 0.0
2017-Oct-31 20:58N 48°52' W 123°38'0 0.0
2017-Oct-31 20:28N 48°52' W 123°38'0 0.0
2017-Oct-31 19:52N 48°52' W 123°38'0 0.0
2017-Oct-31 19:28N 48°52' W 123°38'0 0.0
2017-Oct-31 18:58N 48°52' W 123°38'0 0.0
2017-Oct-31 18:28N 48°52' W 123°38'0 0.0
2017-Oct-31 16:13N 48°52' W 123°38'0 0.0
2017-Oct-31 15:52N 48°52' W 123°38'0 0.0
2017-Oct-31 15:28N 48°52' W 123°38'0 0.0
2017-Oct-31 14:58N 48°52' W 123°38'0 0.0
2017-Oct-31 14:28N 48°52' W 123°38'0 0.0
2017-Oct-31 13:58N 48°52' W 123°38'0 0.0
2017-Oct-31 13:28N 48°52' W 123°38'0 0.0
2017-Oct-31 12:58N 48°52' W 123°38'0 0.0
2017-Oct-31 12:28N 48°52' W 123°38'0 0.0
2017-Oct-31 11:25N 48°52' W 123°38'0 0.0
2017-Oct-31 10:58N 48°52' W 123°38'0 0.0
2017-Oct-31 07:49N 48°52' W 123°38'0 0.0
2017-Oct-31 07:19N 48°52' W 123°38'0 0.0
2017-Oct-31 06:40N 48°52' W 123°38'0 0.0
2017-Oct-31 06:13N 48°52' W 123°38'0 0.0
2017-Oct-31 05:49N 48°52' W 123°38'0 0.0
2017-Oct-31 05:07N 48°52' W 123°38'0 0.0
2017-Oct-31 04:43N 48°52' W 123°38'0 0.0
2017-Oct-31 04:16N 48°52' W 123°38'0 0.0
2017-Oct-31 03:55N 48°52' W 123°38'0 0.0
2017-Oct-31 03:25N 48°52' W 123°38'0 0.0
2017-Oct-31 02:58N 48°52' W 123°38'0 0.0
2017-Oct-31 02:28N 48°52' W 123°38'0 0.0
2017-Oct-31 01:58N 48°52' W 123°38'0 0.0
2017-Oct-31 01:28N 48°52' W 123°38'0 0.0
2017-Oct-31 00:19N 48°52' W 123°38'0 0.0
2017-Oct-30 21:22N 48°52' W 123°38'0 0.0
2017-Oct-30 20:31N 48°52' W 123°38'0 0.0
2017-Oct-30 20:28N 48°52' W 123°38'0 0.0
2017-Oct-30 19:58N 48°52' W 123°38'0 0.0
2017-Oct-30 19:28N 48°52' W 123°38'0 0.0
2017-Oct-30 18:52N 48°52' W 123°38'0 0.0
2017-Oct-30 18:28N 48°52' W 123°38'0 0.0
2017-Oct-30 17:58N 48°52' W 123°38'0 0.0
2017-Oct-30 17:13N 48°52' W 123°38'0 0.0
2017-Oct-30 16:55N 48°52' W 123°38'0 0.0
2017-Oct-30 16:25N 48°52' W 123°38'0 0.0
2017-Oct-30 15:58N 48°52' W 123°38'0 0.0
2017-Oct-30 15:25N 48°52' W 123°38'0 0.0
2017-Oct-30 14:58N 48°52' W 123°38'0 0.0
2017-Oct-30 14:28N 48°52' W 123°38'0 0.0
2017-Oct-30 13:25N 48°52' W 123°38'0 0.0
2017-Oct-30 12:58N 48°52' W 123°38'0 0.0
2017-Oct-30 12:28N 48°52' W 123°38'0 0.0
2017-Oct-30 11:58N 48°52' W 123°38'0 0.0
2017-Oct-30 11:22N 48°52' W 123°38'0 0.0
2017-Oct-30 10:58N 48°52' W 123°38'0 0.0
2017-Oct-30 10:28N 48°52' W 123°38'0 0.0
2017-Oct-30 09:58N 48°52' W 123°38'0 0.0
2017-Oct-30 09:25N 48°52' W 123°38'0 0.0
2017-Oct-30 08:58N 48°52' W 123°38'0 0.0
2017-Oct-30 08:28N 48°52' W 123°38'0 0.0
2017-Oct-30 07:52N 48°52' W 123°38'0 0.0
2017-Oct-30 07:28N 48°52' W 123°38'0 0.0
2017-Oct-30 06:58N 48°52' W 123°38'0 0.0
2017-Oct-30 06:28N 48°52' W 123°38'0 0.0
2017-Oct-30 05:52N 48°52' W 123°38'0 0.0
2017-Oct-30 05:28N 48°52' W 123°38'0 0.0
2017-Oct-30 04:58N 48°52' W 123°38'0 0.0
2017-Oct-30 04:28N 48°52' W 123°38'0 0.0
2017-Oct-30 03:58N 48°52' W 123°38'0 0.0
2017-Oct-30 03:28N 48°52' W 123°38'0 0.0
2017-Oct-30 02:58N 48°52' W 123°38'0 0.0
2017-Oct-30 02:28N 48°52' W 123°38'0 0.0
2017-Oct-30 01:58N 48°52' W 123°38'0 0.0
2017-Oct-30 01:28N 48°52' W 123°38'0 0.0
2017-Oct-30 00:58N 48°52' W 123°38'0 0.0
2017-Oct-30 00:28N 48°52' W 123°38'0 0.0
2017-Oct-29 23:58N 48°52' W 123°38'0 0.0
2017-Oct-29 23:25N 48°52' W 123°38'0 0.0
2017-Oct-29 22:58N 48°52' W 123°38'0 0.0
2017-Oct-29 22:28N 48°52' W 123°38'0 0.0
2017-Oct-29 21:58N 48°52' W 123°38'0 0.0
2017-Oct-29 21:28N 48°52' W 123°38'0 0.0
2017-Oct-29 20:52N 48°52' W 123°38'0 0.0
2017-Oct-29 20:28N 48°52' W 123°38'  

Dump ship's entire track history